KAUG

Augusta State Airport

Augusta, Maine, USA
METAR KAUG 161153Z AUTO 33005KT 10SM CLR M03/M05 A3026 RMK AO2 SLP254 T10331050 11011 21050 53002
Observed Flight Rules
Dec-16 @ 11:53 UTC (52 minutes ago) Visual Flight Rules
Wind Visibility Clouds
330° at 5 knots 10 miles
  • Clear skies
Temperatures Readings
Current -3°C / 27°F
Dewpoint -5°C / 23°F
Humidity 86%
Altimeter 30.26" Hg
Pressure 1025.4 hPa
Elevation 109
METAR KAUG 161153Z AUTO 33005KT 10SM CLR M03/M05 A3026 RMK AO2 SLP254 T10331050 11011 21050 53002
Observed Flight Rules
Dec-16 @ 11:53 UTC
(52 minutes ago)
VFR
Wind Visibility
330° at 5 knots 10 miles
Clouds
  • Clear skies
Temperature Dewpoint
-3°C / 27°F -5°C / 23°F
Humidity Altimeter Pressure
86% 30.26" Hg 1025.4 hPa